Time;durP1;ratioP1;P1;durP2;ratioP2;P2;SDS_P1;SDS_P2;PMS_P1;PMS_P2;Temp;Humidity;BMP_temperature;BMP_pressure;BME280_temperature;BME280_humidity;BME280_pressure;Samples;Min_cycle;Max_cycle;Signal;HPM_P1;HPM_P2
2024/03/02 07:40:02;;;;;;;2.08;0.20;;;9.30;99.90;;;;;;5151386;22;20272;-96
2024/03/02 09:26:03;;;;;;;3.50;0.82;;;12.60;99.90;;;;;;5217339;22;20202;-96
2024/03/02 09:28:49;;;;;;;2.00;0.30;;;12.50;99.90;;;;;;5161174;22;20173;-96
2024/03/02 09:31:18;;;;;;;0.80;0.30;;;12.40;99.90;;;;;;5156832;22;20151;-95
2024/03/02 09:33:34;;;;;;;;;;;;;;;;;;;;;
2024/03/02 09:36:03;;;;;;;;;;;;;;;;;;;;;
2024/03/02 09:38:06;;;;;;;0.98;0.32;;;11.50;99.90;;;;;;5172505;23;20237;-96
2024/03/02 10:17:21;;;;;;;0.38;0.20;;;11.60;99.90;;;;;;5213666;22;20229;-93
2024/03/02 10:35:36;;;;;;;;;;;;;;;;;;;;;
2024/03/02 10:38:48;;;;;;;;;;;;;;;;;;;;;
2024/03/02 10:51:40;;;;;;;1.45;0.35;;;11.90;99.90;;;;;;5061489;23;20157;-96
2024/03/02 10:54:44;;;;;;;1.35;0.30;;;11.70;99.90;;;;;;5007363;23;20701;-96
2024/03/02 11:08:29;;;;;;;;;;;;;;;;;;;;;
2024/03/02 11:18:24;;;;;;;3.13;0.30;;;11.80;99.90;;;;;;4968539;24;20180;-96
2024/03/02 11:21:20;;;;;;;4.53;0.35;;;11.70;99.90;;;;;;4894119;24;20158;-95
2024/03/02 11:27:00;;;;;;;;;;;;;;;;;;;;;
2024/03/02 13:24:15;;;;;;;2.17;0.40;;;13.00;99.90;;;;;;5128948;23;20196;-95
2024/03/02 13:34:19;;;;;;;3.85;0.45;;;12.70;99.90;;;;;;5181390;22;20207;-95
2024/03/02 13:46:13;;;;;;;;;;;;;;;;;;;;;
2024/03/02 14:07:11;;;;;;;2.00;0.30;;;12.70;99.90;;;;;;5204913;22;20224;-95
2024/03/02 14:09:52;;;;;;;4.75;0.45;;;12.70;99.90;;;;;;5211492;22;20189;-93
2024/03/02 14:12:26;;;;;;;0.95;0.17;;;12.80;99.90;;;;;;5185096;22;20226;-93
2024/03/02 14:14:41;;;;;;;2.60;0.28;;;13.00;99.90;;;;;;5184817;22;20238;-94
2024/03/02 14:17:14;;;;;;;0.75;0.28;;;13.10;99.90;;;;;;5205983;22;20185;-94
2024/03/02 14:20:07;;;;;;;1.67;0.00;;;13.40;99.90;;;;;;5199194;22;20178;-94
2024/03/02 14:25:51;;;;;;;0.45;0.22;;;13.20;99.90;;;;;;5097937;22;20142;-93
2024/03/02 14:28:19;;;;;;;0.75;0.10;;;12.90;99.90;;;;;;5207463;22;20138;-94
2024/03/02 14:42:07;;;;;;;0.25;0.13;;;12.80;99.90;;;;;;5180945;22;20258;-94
2024/03/02 14:44:14;;;;;;;1.20;0.32;;;12.80;99.90;;;;;;5132565;23;20171;-94
2024/03/02 14:46:22;;;;;;;4.82;0.77;;;12.80;99.90;;;;;;5132875;23;20175;-94
2024/03/02 14:48:40;;;;;;;2.30;0.20;;;12.90;99.90;;;;;;5128958;23;20127;-94
2024/03/02 14:50:55;;;;;;;0.28;0.13;;;12.80;99.90;;;;;;5132087;23;20153;-94
2024/03/02 14:53:07;;;;;;;2.42;0.32;;;12.60;99.90;;;;;;5129210;23;20136;-96
2024/03/02 14:55:23;;;;;;;1.20;0.20;;;12.70;99.90;;;;;;5183980;22;20231;-94
2024/03/02 14:57:46;;;;;;;2.28;0.45;;;12.60;99.90;;;;;;5159506;22;20203;-94
2024/03/02 15:00:11;;;;;;;0.98;0.20;;;12.70;99.90;;;;;;5134222;23;20152;-94
2024/03/02 15:02:16;;;;;;;0.73;0.40;;;13.00;99.90;;;;;;5180782;22;20605;-94
2024/03/02 15:04:49;;;;;;;4.75;0.30;;;12.80;99.90;;;;;;5157333;22;20163;-94
2024/03/02 15:07:00;;;;;;;0.52;0.20;;;12.80;99.90;;;;;;5152538;22;20155;-93
2024/03/02 15:09:30;;;;;;;0.30;0.20;;;12.70;99.90;;;;;;5160243;22;20243;-94
2024/03/02 15:12:03;;;;;;;0.13;0.10;;;12.70;99.90;;;;;;5183142;22;20151;-93
2024/03/02 15:14:58;;;;;;;3.13;0.50;;;12.60;99.90;;;;;;5153050;22;20194;-95
2024/03/02 15:17:06;;;;;;;3.72;0.25;;;12.60;99.90;;;;;;5157247;22;20166;-93
2024/03/02 15:19:28;;;;;;;0.20;0.05;;;12.50;99.90;;;;;;5130866;22;20167;-94
2024/03/02 15:21:55;;;;;;;1.80;0.32;;;12.50;99.90;;;;;;5157640;22;20185;-93
2024/03/02 15:24:07;;;;;;;1.77;0.20;;;12.70;99.90;;;;;;5130659;23;20151;-94
2024/03/02 15:26:22;;;;;;;0.35;0.20;;;12.70;99.90;;;;;;5159981;22;20190;-94
2024/03/02 15:29:00;;;;;;;1.35;0.25;;;12.60;99.90;;;;;;5158969;22;20159;-94
2024/03/02 15:31:39;;;;;;;2.20;0.15;;;12.70;99.90;;;;;;5182972;22;20578;-94
2024/03/02 15:34:13;;;;;;;3.80;0.10;;;12.60;99.90;;;;;;5156164;22;20156;-93
2024/03/02 15:37:03;;;;;;;0.68;0.22;;;12.60;99.90;;;;;;5131116;22;20194;-95
2024/03/02 15:39:35;;;;;;;0.50;0.17;;;12.60;99.90;;;;;;5162435;22;20469;-93
2024/03/02 15:41:36;;;;;;;1.10;0.20;;;12.70;99.90;;;;;;5154503;22;20216;-94
2024/03/02 15:43:58;;;;;;;0.10;0.10;;;12.70;99.90;;;;;;5156756;22;20155;-93
2024/03/02 15:46:39;;;;;;;0.75;0.15;;;12.70;99.90;;;;;;5150920;22;20246;-95
2024/03/02 15:49:08;;;;;;;0.50;0.30;;;12.60;99.90;;;;;;5160056;22;20182;-94
2024/03/02 15:51:40;;;;;;;5.35;0.20;;;12.60;99.90;;;;;;5133122;23;20144;-95
2024/03/02 15:53:58;;;;;;;4.47;0.30;;;12.50;99.90;;;;;;5156737;22;20164;-93
2024/03/02 15:56:04;;;;;;;0.32;0.20;;;12.40;99.90;;;;;;5128325;23;20161;-94
2024/03/02 15:58:10;;;;;;;3.13;0.20;;;12.40;99.90;;;;;;5157057;22;20159;-93
2024/03/02 16:00:12;;;;;;;0.20;0.10;;;12.50;99.90;;;;;;5128674;23;20157;-93
2024/03/02 16:02:25;;;;;;;1.70;0.40;;;12.60;99.90;;;;;;5156647;22;20166;-96
2024/03/02 16:04:33;;;;;;;3.65;0.60;;;12.80;99.90;;;;;;5158103;22;20231;-94
2024/03/02 16:06:41;;;;;;;1.40;0.47;;;12.80;99.90;;;;;;5157589;22;20139;-93
2024/03/02 16:09:17;;;;;;;4.45;0.43;;;12.70;99.90;;;;;;5158003;22;20262;-93
2024/03/02 16:11:35;;;;;;;1.88;0.57;;;12.80;99.90;;;;;;5157435;22;20583;-93
2024/03/02 16:13:49;;;;;;;0.40;0.20;;;12.80;99.90;;;;;;5154919;22;20138;-93
2024/03/02 16:16:13;;;;;;;0.40;0.20;;;12.60;99.90;;;;;;5128962;23;20219;-94
2024/03/02 16:18:28;;;;;;;2.03;0.30;;;12.50;99.90;;;;;;5158184;22;20235;-94
2024/03/02 16:20:49;;;;;;;0.50;0.28;;;12.50;99.90;;;;;;5156046;22;20148;-94
2024/03/02 16:22:55;;;;;;;1.55;0.32;;;12.50;99.90;;;;;;5129040;23;20160;-94
2024/03/02 16:24:56;;;;;;;4.45;0.80;;;12.50;99.90;;;;;;5127236;23;20596;-93
2024/03/02 16:27:11;;;;;;;0.55;0.25;;;12.60;99.90;;;;;;5155849;22;20162;-94
2024/03/02 16:29:13;;;;;;;1.98;0.25;;;12.50;99.90;;;;;;5130438;23;20210;-93
2024/03/02 16:31:20;;;;;;;0.55;0.30;;;12.50;99.90;;;;;;5121559;22;20189;-93
2024/03/02 16:33:25;;;;;;;1.20;0.30;;;12.50;99.90;;;;;;5151887;22;20175;-94
2024/03/02 16:35:34;;;;;;;2.53;0.85;;;12.40;99.90;;;;;;5153170;22;20206;-94
2024/03/02 16:37:54;;;;;;;3.55;0.20;;;12.30;99.90;;;;;;5154390;22;20162;-94
2024/03/02 16:40:38;;;;;;;1.90;0.32;;;12.30;99.90;;;;;;5131567;22;20156;-94
2024/03/02 16:42:54;;;;;;;0.30;0.28;;;12.40;99.90;;;;;;5130330;23;20160;-91
2024/03/02 16:45:00;;;;;;;1.80;0.30;;;12.30;99.90;;;;;;5129696;23;20571;-93
2024/03/02 16:47:05;;;;;;;0.77;0.38;;;12.30;99.90;;;;;;5128831;23;20453;-93
2024/03/02 16:49:16;;;;;;;3.50;0.50;;;12.30;99.90;;;;;;5104503;23;20205;-92
2024/03/02 16:51:24;;;;;;;2.35;0.40;;;12.40;99.90;;;;;;5107928;23;20160;-92
2024/03/02 16:53:56;;;;;;;5.68;0.85;;;12.40;99.90;;;;;;5097688;23;20133;-91
2024/03/02 16:56:30;;;;;;;1.27;0.40;;;12.40;99.90;;;;;;5139935;23;20164;-94
2024/03/02 16:58:44;;;;;;;0.47;0.30;;;12.40;99.90;;;;;;5153477;22;20618;-93
2024/03/02 17:01:01;;;;;;;0.40;0.20;;;12.30;99.90;;;;;;5104893;23;20153;-93
2024/03/02 17:03:01;;;;;;;0.40;0.20;;;12.30;99.90;;;;;;5103407;23;20268;-94
2024/03/02 17:05:03;;;;;;;0.40;0.30;;;12.30;99.90;;;;;;5112998;23;20153;-92
2024/03/02 17:07:25;;;;;;;1.20;0.40;;;12.30;99.90;;;;;;5137178;23;20140;-92
2024/03/02 17:09:34;;;;;;;2.03;0.50;;;12.40;99.90;;;;;;5108124;23;20578;-94
2024/03/02 17:12:17;;;;;;;0.60;0.40;;;12.50;99.90;;;;;;5155376;22;20163;-92
2024/03/02 17:14:27;;;;;;;0.93;0.20;;;12.40;99.90;;;;;;5104823;23;20137;-94
2024/03/02 17:16:36;;;;;;;1.85;0.60;;;12.30;99.90;;;;;;5131358;22;20141;-93
2024/03/02 17:18:53;;;;;;;3.50;0.40;;;12.30;99.90;;;;;;5134590;23;20710;-92
2024/03/02 17:21:20;;;;;;;0.68;0.38;;;12.10;99.90;;;;;;5152914;22;20159;-93
2024/03/02 17:23:35;;;;;;;0.10;0.10;;;12.10;99.90;;;;;;5121092;23;20157;-91
2024/03/02 17:25:43;;;;;;;0.88;0.40;;;12.10;99.90;;;;;;5128672;23;20159;-92
2024/03/02 17:27:53;;;;;;;0.60;0.20;;;12.10;99.90;;;;;;5130035;23;20153;-93
2024/03/02 17:30:05;;;;;;;3.38;0.50;;;12.00;99.90;;;;;;5159674;22;20207;-94
2024/03/02 17:32:11;;;;;;;0.77;0.40;;;12.00;99.90;;;;;;5102274;23;20224;-92
2024/03/02 17:34:24;;;;;;;1.38;0.28;;;11.90;99.90;;;;;;5120391;23;20156;-93
2024/03/02 17:36:51;;;;;;;2.42;0.40;;;11.90;99.90;;;;;;5132180;23;20160;-92
2024/03/02 17:39:04;;;;;;;0.73;0.30;;;12.00;99.90;;;;;;5127109;23;20164;-93
2024/03/02 17:41:25;;;;;;;1.50;0.43;;;12.00;99.90;;;;;;5132736;23;20164;-92
2024/03/02 17:43:32;;;;;;;0.82;0.30;;;11.80;99.90;;;;;;5101934;23;20160;-92
2024/03/02 17:45:33;;;;;;;4.63;0.63;;;11.90;99.90;;;;;;5125658;23;20164;-92
2024/03/02 17:47:43;;;;;;;0.20;0.13;;;11.90;99.90;;;;;;5105858;23;20153;-93
2024/03/02 17:49:44;;;;;;;1.23;0.50;;;11.90;99.90;;;;;;5105200;23;20189;-93
2024/03/02 17:51:45;;;;;;;0.57;0.38;;;11.80;99.90;;;;;;5107842;23;20148;-94
2024/03/02 17:54:11;;;;;;;1.23;0.43;;;11.80;99.90;;;;;;5124705;23;20164;-92
2024/03/02 17:56:31;;;;;;;0.50;0.40;;;11.90;99.90;;;;;;5130515;23;20232;-93
2024/03/02 17:58:52;;;;;;;0.57;0.40;;;12.00;99.90;;;;;;5103469;23;20164;-92
2024/03/02 18:00:59;;;;;;;0.55;0.30;;;12.00;99.90;;;;;;5108385;23;20133;-93
2024/03/02 18:03:05;;;;;;;0.55;0.20;;;11.90;99.90;;;;;;5105342;23;20623;-91
2024/03/02 18:05:19;;;;;;;0.38;0.30;;;11.80;99.90;;;;;;5155074;22;20159;-91
2024/03/02 18:10:21;;;;;;;1.15;0.40;;;11.80;99.90;;;;;;5202890;22;20196;-93
2024/03/02 18:12:22;;;;;;;0.95;0.40;;;11.70;99.90;;;;;;5177752;22;20154;-93
2024/03/02 18:14:31;;;;;;;0.22;0.17;;;11.70;99.90;;;;;;5203097;22;20191;-96
2024/03/02 18:25:47;;;;;;;1.55;0.30;;;11.60;99.90;;;;;;5182733;23;20161;-95
2024/03/02 18:28:40;;;;;;;0.20;0.20;;;11.50;99.90;;;;;;5131683;23;20179;-93
2024/03/02 18:30:55;;;;;;;3.97;0.75;;;11.40;99.90;;;;;;5127720;23;20143;-91
2024/03/02 18:33:08;;;;;;;1.02;0.45;;;11.30;99.90;;;;;;5177015;22;20589;-92
2024/03/02 18:35:41;;;;;;;0.88;0.47;;;11.40;99.90;;;;;;5181095;22;20190;-92
2024/03/02 18:38:20;;;;;;;0.80;0.32;;;11.50;99.90;;;;;;5161920;23;20139;-91
2024/03/02 18:44:04;;;;;;;1.40;0.47;;;11.50;99.90;;;;;;5178863;22;20169;-92
2024/03/02 18:46:13;;;;;;;2.00;0.60;;;11.50;99.90;;;;;;5153539;23;20167;-92
2024/03/02 18:48:28;;;;;;;0.77;0.60;;;11.40;99.90;;;;;;5155087;23;20191;-94
2024/03/02 19:54:08;;;;;;;2.25;0.80;;;11.30;99.90;;;;;;5213666;22;20268;-94
2024/03/02 19:57:23;;;;;;;;;;;;;;;;;;;;;
2024/03/02 20:05:11;;;;;;;3.40;0.70;;;11.50;99.90;;;;;;5084980;23;20240;-94
2024/03/02 20:08:01;;;;;;;;;;;;;;;;;;;;;
2024/03/02 20:10:43;;;;;;;0.75;0.50;;;11.40;99.90;;;;;;5095297;23;20151;-94
2024/03/02 20:16:56;;;;;;;;;;;;;;;;;;;;;
2024/03/02 20:49:42;;;;;;;;;;;;;;;;;;;;;
2024/03/02 20:52:45;;;;;;;1.65;0.75;;;11.20;99.90;;;;;;4913684;23;20253;-94
2024/03/02 20:56:26;;;;;;;;;;;;;;;;;;;;;
2024/03/02 20:59:17;;;;;;;2.55;1.10;;;11.40;99.90;;;;;;4980014;23;20227;-94
2024/03/02 21:02:53;;;;;;;2.88;0.77;;;11.40;99.90;;;;;;4990371;23;20174;-95
2024/03/02 21:06:27;;;;;;;1.63;0.80;;;11.30;99.90;;;;;;4984500;23;20171;-95
2024/03/02 21:08:51;;;;;;;;;;;;;;;;;;;;;
2024/03/02 21:11:36;;;;;;;2.53;1.08;;;11.30;99.90;;;;;;4923629;23;20232;-94
2024/03/02 21:14:53;;;;;;;2.33;0.98;;;11.40;99.90;;;;;;4956610;23;20165;-93
2024/03/02 21:17:18;;;;;;;2.85;0.93;;;11.30;99.90;;;;;;4936748;23;20161;-94
2024/03/02 21:19:42;;;;;;;;;;;;;;;;;;;;;
2024/03/02 21:21:44;;;;;;;1.50;0.63;;;11.20;99.90;;;;;;5175899;22;20154;-94
2024/03/02 21:24:28;;;;;;;3.92;1.10;;;11.30;99.90;;;;;;5171835;22;20202;-94
2024/03/02 21:27:30;;;;;;;2.15;0.88;;;11.30;99.90;;;;;;5183142;22;20166;-95
2024/03/02 21:30:19;;;;;;;;;;;;;;;;;;;;;
2024/03/02 21:32:51;;;;;;;2.63;1.10;;;11.40;99.90;;;;;;5179471;22;20644;-95
2024/03/02 21:35:31;;;;;;;2.60;1.10;;;11.40;99.90;;;;;;5159958;22;20179;-94
2024/03/02 21:41:08;;;;;;;;;;;;;;;;;;;;;
2024/03/02 21:46:37;;;;;;;1.13;0.60;;;11.50;99.90;;;;;;5179625;22;20143;-96
2024/03/02 21:49:04;;;;;;;;;;;;;;;;;;;;;
2024/03/02 21:54:23;;;;;;;1.60;0.55;;;11.60;99.90;;;;;;5187744;22;20176;-93
2024/03/02 21:57:26;;;;;;;;;;;;;;;;;;;;;
2024/03/02 22:00:09;;;;;;;0.70;0.60;;;11.40;99.90;;;;;;5205526;22;20178;-94
2024/03/02 22:06:41;;;;;;;1.13;0.65;;;11.60;99.90;;;;;;5204541;22;20214;-96
2024/03/02 22:09:38;;;;;;;1.38;0.77;;;11.30;99.90;;;;;;5179583;22;20178;-95
2024/03/02 22:19:49;;;;;;;0.98;0.70;;;11.50;99.90;;;;;;5156302;22;20208;-94
2024/03/02 22:22:26;;;;;;;1.48;0.60;;;11.50;99.90;;;;;;5203065;22;20158;-95
2024/03/02 22:29:21;;;;;;;1.83;0.50;;;11.70;99.90;;;;;;5183890;22;20205;-93
2024/03/02 22:32:19;;;;;;;0.98;0.50;;;11.80;99.90;;;;;;5164844;22;20238;-94
2024/03/02 22:34:45;;;;;;;1.13;0.60;;;12.00;99.90;;;;;;5207833;22;20178;-93
2024/03/02 22:37:13;;;;;;;;;;;;;;;;;;;;;
2024/03/02 22:40:22;;;;;;;2.42;0.60;;;12.00;99.90;;;;;;5052566;23;20656;-94
2024/03/02 22:43:06;;;;;;;1.02;0.50;;;11.90;99.90;;;;;;5130808;22;20146;-94
2024/03/02 22:45:49;;;;;;;0.38;0.32;;;11.80;99.90;;;;;;5154616;23;20179;-95
2024/03/02 22:51:38;;;;;;;;;;;;;;;;;;;;;
2024/03/02 22:54:08;;;;;;;1.35;0.55;;;11.90;99.90;;;;;;5204828;22;20225;-94
2024/03/02 22:57:01;;;;;;;;;;;;;;;;;;;;;
2024/03/02 22:59:59;;;;;;;1.30;0.77;;;11.30;99.90;;;;;;5193075;22;20234;-94
2024/03/02 23:09:13;;;;;;;;;;;;;;;;;;;;;
2024/03/02 23:11:36;;;;;;;5.22;1.33;;;11.00;99.90;;;;;;5184669;22;20143;-93
2024/03/02 23:17:32;;;;;;;4.10;1.58;;;11.00;99.90;;;;;;5162214;22;20625;-94
